sensor_id;sensor_type;location;lat;lon;timestamp;temperature;humidity
45137;DHT22;30894;51.740;19.498;2023-07-13T00:00:47;16.60;99.90
45137;DHT22;30894;51.740;19.498;2023-07-13T00:03:34;16.50;99.90
45137;DHT22;30894;51.740;19.498;2023-07-13T00:06:01;16.50;99.90
45137;DHT22;30894;51.740;19.498;2023-07-13T00:08:30;16.50;99.90
45137;DHT22;30894;51.740;19.498;2023-07-13T00:10:58;16.50;99.90
45137;DHT22;30894;51.740;19.498;2023-07-13T00:13:25;16.50;99.90
45137;DHT22;30894;51.740;19.498;2023-07-13T00:15:51;16.40;99.90
45137;DHT22;30894;51.740;19.498;2023-07-13T00:18:20;16.40;99.90
45137;DHT22;30894;51.740;19.498;2023-07-13T00:20:46;16.30;99.90
45137;DHT22;30894;51.740;19.498;2023-07-13T00:23:12;16.20;99.90
45137;DHT22;30894;51.740;19.498;2023-07-13T00:25:38;16.20;99.90
45137;DHT22;30894;51.740;19.498;2023-07-13T00:28:04;16.20;99.90
45137;DHT22;30894;51.740;19.498;2023-07-13T00:30:30;16.20;99.90
45137;DHT22;30894;51.740;19.498;2023-07-13T00:32:57;16.10;99.90
45137;DHT22;30894;51.740;19.498;2023-07-13T00:35:23;16.20;99.90
45137;DHT22;30894;51.740;19.498;2023-07-13T00:37:51;16.10;99.90
45137;DHT22;30894;51.740;19.498;2023-07-13T00:40:17;16.10;99.90
45137;DHT22;30894;51.740;19.498;2023-07-13T00:42:44;16.10;99.90
45137;DHT22;30894;51.740;19.498;2023-07-13T00:47:40;16.00;99.90
45137;DHT22;30894;51.740;19.498;2023-07-13T00:50:08;16.00;99.90
45137;DHT22;30894;51.740;19.498;2023-07-13T00:52:38;16.00;99.90
45137;DHT22;30894;51.740;19.498;2023-07-13T00:55:07;16.00;99.90
45137;DHT22;30894;51.740;19.498;2023-07-13T00:57:35;16.10;99.90
45137;DHT22;30894;51.740;19.498;2023-07-13T01:00:04;16.00;99.90
45137;DHT22;30894;51.740;19.498;2023-07-13T01:02:33;16.00;99.90
45137;DHT22;30894;51.740;19.498;2023-07-13T01:04:59;16.00;99.90
45137;DHT22;30894;51.740;19.498;2023-07-13T01:07:28;16.00;99.90
45137;DHT22;30894;51.740;19.498;2023-07-13T01:09:54;16.00;99.90
45137;DHT22;30894;51.740;19.498;2023-07-13T01:12:20;15.90;99.90
45137;DHT22;30894;51.740;19.498;2023-07-13T01:14:46;15.90;99.90
45137;DHT22;30894;51.740;19.498;2023-07-13T01:17:12;15.90;99.90
45137;DHT22;30894;51.740;19.498;2023-07-13T01:19:41;15.90;99.90
45137;DHT22;30894;51.740;19.498;2023-07-13T01:22:14;15.90;99.90
45137;DHT22;30894;51.740;19.498;2023-07-13T01:24:44;15.90;99.90
45137;DHT22;30894;51.740;19.498;2023-07-13T01:27:15;15.80;99.90
45137;DHT22;30894;51.740;19.498;2023-07-13T01:29:44;15.80;99.90
45137;DHT22;30894;51.740;19.498;2023-07-13T01:32:15;15.90;99.90
45137;DHT22;30894;51.740;19.498;2023-07-13T01:34:48;15.80;99.90
45137;DHT22;30894;51.740;19.498;2023-07-13T01:37:14;15.80;99.90
45137;DHT22;30894;51.740;19.498;2023-07-13T01:39:40;15.80;99.90
45137;DHT22;30894;51.740;19.498;2023-07-13T01:42:06;15.70;99.90
45137;DHT22;30894;51.740;19.498;2023-07-13T01:44:51;15.70;99.90
45137;DHT22;30894;51.740;19.498;2023-07-13T01:47:17;15.70;99.90
45137;DHT22;30894;51.740;19.498;2023-07-13T01:49:43;15.70;99.90
45137;DHT22;30894;51.740;19.498;2023-07-13T01:52:11;15.80;99.90
45137;DHT22;30894;51.740;19.498;2023-07-13T01:54:37;15.80;99.90
45137;DHT22;30894;51.740;19.498;2023-07-13T01:57:04;15.80;99.90
45137;DHT22;30894;51.740;19.498;2023-07-13T01:59:30;15.80;99.90
45137;DHT22;30894;51.740;19.498;2023-07-13T02:01:56;15.80;99.90
45137;DHT22;30894;51.740;19.498;2023-07-13T02:04:22;15.80;99.90
45137;DHT22;30894;51.740;19.498;2023-07-13T02:06:48;15.80;99.90
45137;DHT22;30894;51.740;19.498;2023-07-13T02:09:14;15.80;99.90
45137;DHT22;30894;51.740;19.498;2023-07-13T02:11:40;15.80;99.90
45137;DHT22;30894;51.740;19.498;2023-07-13T02:14:06;15.80;99.90
45137;DHT22;30894;51.740;19.498;2023-07-13T02:16:32;15.70;99.90
45137;DHT22;30894;51.740;19.498;2023-07-13T02:18:58;15.70;99.90
45137;DHT22;30894;51.740;19.498;2023-07-13T02:21:26;15.60;99.90
45137;DHT22;30894;51.740;19.498;2023-07-13T02:23:52;15.60;99.90
45137;DHT22;30894;51.740;19.498;2023-07-13T02:26:18;15.60;99.90
45137;DHT22;30894;51.740;19.498;2023-07-13T02:28:44;15.50;99.90
45137;DHT22;30894;51.740;19.498;2023-07-13T02:31:13;15.50;99.90
45137;DHT22;30894;51.740;19.498;2023-07-13T02:33:40;15.40;99.90
45137;DHT22;30894;51.740;19.498;2023-07-13T02:36:07;15.40;99.90
45137;DHT22;30894;51.740;19.498;2023-07-13T02:38:34;15.50;99.90
45137;DHT22;30894;51.740;19.498;2023-07-13T02:41:06;15.40;99.90
45137;DHT22;30894;51.740;19.498;2023-07-13T02:43:34;15.50;99.90
45137;DHT22;30894;51.740;19.498;2023-07-13T02:46:01;15.50;99.90
45137;DHT22;30894;51.740;19.498;2023-07-13T02:48:37;15.40;99.90
45137;DHT22;30894;51.740;19.498;2023-07-13T02:51:04;15.50;99.90
45137;DHT22;30894;51.740;19.498;2023-07-13T02:53:30;15.50;99.90
45137;DHT22;30894;51.740;19.498;2023-07-13T02:55:57;15.50;99.90
45137;DHT22;30894;51.740;19.498;2023-07-13T02:58:23;15.60;99.90
45137;DHT22;30894;51.740;19.498;2023-07-13T03:00:49;15.60;99.90
45137;DHT22;30894;51.740;19.498;2023-07-13T03:03:15;15.70;99.90
45137;DHT22;30894;51.740;19.498;2023-07-13T03:05:43;15.80;99.90
45137;DHT22;30894;51.740;19.498;2023-07-13T03:08:11;15.90;99.90
45137;DHT22;30894;51.740;19.498;2023-07-13T03:10:38;15.90;99.90
45137;DHT22;30894;51.740;19.498;2023-07-13T03:13:05;16.00;99.90
45137;DHT22;30894;51.740;19.498;2023-07-13T03:15:31;16.00;99.90
45137;DHT22;30894;51.740;19.498;2023-07-13T03:17:57;16.10;99.90
45137;DHT22;30894;51.740;19.498;2023-07-13T03:20:23;16.10;99.90
45137;DHT22;30894;51.740;19.498;2023-07-13T03:22:49;16.20;99.90
45137;DHT22;30894;51.740;19.498;2023-07-13T03:25:15;16.20;99.90
45137;DHT22;30894;51.740;19.498;2023-07-13T03:27:41;16.30;99.90
45137;DHT22;30894;51.740;19.498;2023-07-13T03:30:08;16.40;99.90
45137;DHT22;30894;51.740;19.498;2023-07-13T03:32:34;16.40;99.90
45137;DHT22;30894;51.740;19.498;2023-07-13T03:35:00;16.50;99.90
45137;DHT22;30894;51.740;19.498;2023-07-13T03:37:27;16.60;99.90
45137;DHT22;30894;51.740;19.498;2023-07-13T03:39:53;16.60;99.90
45137;DHT22;30894;51.740;19.498;2023-07-13T03:42:20;16.60;99.90
45137;DHT22;30894;51.740;19.498;2023-07-13T03:44:46;16.60;99.90
45137;DHT22;30894;51.740;19.498;2023-07-13T03:47:18;16.60;99.90
45137;DHT22;30894;51.740;19.498;2023-07-13T03:49:44;16.60;99.90
45137;DHT22;30894;51.740;19.498;2023-07-13T03:52:11;16.70;99.90
45137;DHT22;30894;51.740;19.498;2023-07-13T03:54:37;16.70;99.90
45137;DHT22;30894;51.740;19.498;2023-07-13T03:57:04;16.70;99.90
45137;DHT22;30894;51.740;19.498;2023-07-13T03:59:31;16.70;99.90
45137;DHT22;30894;51.740;19.498;2023-07-13T04:01:57;16.80;99.90
45137;DHT22;30894;51.740;19.498;2023-07-13T04:04:23;16.90;99.90
45137;DHT22;30894;51.740;19.498;2023-07-13T04:06:49;16.90;99.90
45137;DHT22;30894;51.740;19.498;2023-07-13T04:09:15;17.00;99.90
45137;DHT22;30894;51.740;19.498;2023-07-13T04:11:41;17.00;99.90
45137;DHT22;30894;51.740;19.498;2023-07-13T04:14:07;17.10;99.90
45137;DHT22;30894;51.740;19.498;2023-07-13T04:16:33;17.10;99.90
45137;DHT22;30894;51.740;19.498;2023-07-13T04:18:59;17.10;99.90
45137;DHT22;30894;51.740;19.498;2023-07-13T04:21:30;17.30;99.90
45137;DHT22;30894;51.740;19.498;2023-07-13T04:23:57;17.40;99.90
45137;DHT22;30894;51.740;19.498;2023-07-13T04:26:23;17.50;99.90
45137;DHT22;30894;51.740;19.498;2023-07-13T04:28:50;17.60;99.90
45137;DHT22;30894;51.740;19.498;2023-07-13T04:31:17;17.60;99.90
45137;DHT22;30894;51.740;19.498;2023-07-13T04:33:43;17.70;99.90
45137;DHT22;30894;51.740;19.498;2023-07-13T04:36:09;17.70;99.90
45137;DHT22;30894;51.740;19.498;2023-07-13T04:38:36;17.80;99.90
45137;DHT22;30894;51.740;19.498;2023-07-13T04:41:05;17.90;99.90
45137;DHT22;30894;51.740;19.498;2023-07-13T04:43:33;18.00;99.90
45137;DHT22;30894;51.740;19.498;2023-07-13T04:46:11;18.00;99.90
45137;DHT22;30894;51.740;19.498;2023-07-13T04:48:38;18.10;99.90
45137;DHT22;30894;51.740;19.498;2023-07-13T04:51:04;18.20;99.90
45137;DHT22;30894;51.740;19.498;2023-07-13T04:53:32;18.30;99.90
45137;DHT22;30894;51.740;19.498;2023-07-13T04:56:00;18.40;99.90
45137;DHT22;30894;51.740;19.498;2023-07-13T04:58:27;18.60;99.90
45137;DHT22;30894;51.740;19.498;2023-07-13T05:00:59;18.70;99.90
45137;DHT22;30894;51.740;19.498;2023-07-13T05:03:25;19.20;99.90
45137;DHT22;30894;51.740;19.498;2023-07-13T05:06:04;19.70;99.90
45137;DHT22;30894;51.740;19.498;2023-07-13T05:08:31;20.00;99.90
45137;DHT22;30894;51.740;19.498;2023-07-13T05:11:00;20.10;99.90
45137;DHT22;30894;51.740;19.498;2023-07-13T05:13:26;20.20;99.90
45137;DHT22;30894;51.740;19.498;2023-07-13T05:15:58;20.20;99.90
45137;DHT22;30894;51.740;19.498;2023-07-13T05:18:26;20.40;99.90
45137;DHT22;30894;51.740;19.498;2023-07-13T05:21:06;20.70;99.90
45137;DHT22;30894;51.740;19.498;2023-07-13T05:23:34;21.20;99.90
45137;DHT22;30894;51.740;19.498;2023-07-13T05:26:02;21.50;99.90
45137;DHT22;30894;51.740;19.498;2023-07-13T05:28:29;21.50;99.90
45137;DHT22;30894;51.740;19.498;2023-07-13T05:30:56;21.30;99.90
45137;DHT22;30894;51.740;19.498;2023-07-13T05:33:22;21.30;99.90
45137;DHT22;30894;51.740;19.498;2023-07-13T05:35:49;21.20;99.90
45137;DHT22;30894;51.740;19.498;2023-07-13T05:38:15;21.20;99.90
45137;DHT22;30894;51.740;19.498;2023-07-13T05:40:45;21.10;99.90
45137;DHT22;30894;51.740;19.498;2023-07-13T05:43:12;21.20;99.90
45137;DHT22;30894;51.740;19.498;2023-07-13T05:45:39;21.60;99.90
45137;DHT22;30894;51.740;19.498;2023-07-13T05:48:05;22.20;99.30
45137;DHT22;30894;51.740;19.498;2023-07-13T05:50:31;22.70;98.00
45137;DHT22;30894;51.740;19.498;2023-07-13T05:52:58;23.00;97.00
45137;DHT22;30894;51.740;19.498;2023-07-13T05:55:24;23.00;96.70
45137;DHT22;30894;51.740;19.498;2023-07-13T05:57:50;23.00;96.60
45137;DHT22;30894;51.740;19.498;2023-07-13T06:00:17;23.00;96.60
45137;DHT22;30894;51.740;19.498;2023-07-13T06:02:43;23.20;96.40
45137;DHT22;30894;51.740;19.498;2023-07-13T06:05:10;23.30;96.00
45137;DHT22;30894;51.740;19.498;2023-07-13T06:07:36;23.50;95.70
45137;DHT22;30894;51.740;19.498;2023-07-13T06:10:02;23.90;95.10
45137;DHT22;30894;51.740;19.498;2023-07-13T06:12:28;24.10;94.60
45137;DHT22;30894;51.740;19.498;2023-07-13T06:14:54;24.10;94.40
45137;DHT22;30894;51.740;19.498;2023-07-13T06:17:20;24.00;94.40
45137;DHT22;30894;51.740;19.498;2023-07-13T06:19:47;24.10;94.40
45137;DHT22;30894;51.740;19.498;2023-07-13T06:22:13;24.30;94.20
45137;DHT22;30894;51.740;19.498;2023-07-13T06:24:40;24.80;93.60
45137;DHT22;30894;51.740;19.498;2023-07-13T06:27:07;25.30;92.60
45137;DHT22;30894;51.740;19.498;2023-07-13T06:29:34;25.50;91.90
45137;DHT22;30894;51.740;19.498;2023-07-13T06:32:00;25.70;91.50
45137;DHT22;30894;51.740;19.498;2023-07-13T06:34:27;25.90;91.20
45137;DHT22;30894;51.740;19.498;2023-07-13T06:36:53;26.40;90.70
45137;DHT22;30894;51.740;19.498;2023-07-13T06:39:19;27.80;87.50
45137;DHT22;30894;51.740;19.498;2023-07-13T06:41:45;28.60;83.90
45137;DHT22;30894;51.740;19.498;2023-07-13T06:44:11;29.10;81.30
45137;DHT22;30894;51.740;19.498;2023-07-13T06:46:37;29.50;79.80
45137;DHT22;30894;51.740;19.498;2023-07-13T06:49:04;29.80;78.70
45137;DHT22;30894;51.740;19.498;2023-07-13T06:51:30;29.70;78.30
45137;DHT22;30894;51.740;19.498;2023-07-13T06:53:56;29.70;78.50
45137;DHT22;30894;51.740;19.498;2023-07-13T06:56:22;29.60;78.60
45137;DHT22;30894;51.740;19.498;2023-07-13T06:58:49;29.80;78.40
45137;DHT22;30894;51.740;19.498;2023-07-13T07:01:15;30.30;77.60
45137;DHT22;30894;51.740;19.498;2023-07-13T07:03:42;30.50;76.90
45137;DHT22;30894;51.740;19.498;2023-07-13T07:06:17;30.40;77.00
45137;DHT22;30894;51.740;19.498;2023-07-13T07:08:44;30.10;77.40
45137;DHT22;30894;51.740;19.498;2023-07-13T07:11:17;29.80;78.10
45137;DHT22;30894;51.740;19.498;2023-07-13T07:13:53;29.60;79.00
45137;DHT22;30894;51.740;19.498;2023-07-13T07:16:20;29.20;79.90
45137;DHT22;30894;51.740;19.498;2023-07-13T07:18:47;28.90;80.90
45137;DHT22;30894;51.740;19.498;2023-07-13T07:21:14;28.50;81.90
45137;DHT22;30894;51.740;19.498;2023-07-13T07:23:42;28.10;83.10
45137;DHT22;30894;51.740;19.498;2023-07-13T07:26:11;27.50;84.40
45137;DHT22;30894;51.740;19.498;2023-07-13T07:28:37;27.10;86.00
45137;DHT22;30894;51.740;19.498;2023-07-13T07:31:03;26.60;87.50
45137;DHT22;30894;51.740;19.498;2023-07-13T07:33:30;26.10;88.90
45137;DHT22;30894;51.740;19.498;2023-07-13T07:35:56;25.70;90.20
45137;DHT22;30894;51.740;19.498;2023-07-13T07:38:22;25.30;90.90
45137;DHT22;30894;51.740;19.498;2023-07-13T07:40:48;25.00;91.60
45137;DHT22;30894;51.740;19.498;2023-07-13T07:43:14;24.70;92.20
45137;DHT22;30894;51.740;19.498;2023-07-13T07:45:40;24.40;92.80
45137;DHT22;30894;51.740;19.498;2023-07-13T07:48:07;24.00;93.50
45137;DHT22;30894;51.740;19.498;2023-07-13T07:50:35;23.50;94.40
45137;DHT22;30894;51.740;19.498;2023-07-13T07:53:05;23.00;95.60
45137;DHT22;30894;51.740;19.498;2023-07-13T07:55:36;22.50;96.80
45137;DHT22;30894;51.740;19.498;2023-07-13T07:58:02;22.10;97.90
45137;DHT22;30894;51.740;19.498;2023-07-13T08:00:28;21.80;98.80
45137;DHT22;30894;51.740;19.498;2023-07-13T08:02:58;21.40;99.70
45137;DHT22;30894;51.740;19.498;2023-07-13T08:05:25;21.10;99.90
45137;DHT22;30894;51.740;19.498;2023-07-13T08:07:52;20.70;99.90
45137;DHT22;30894;51.740;19.498;2023-07-13T08:10:18;20.40;99.90
45137;DHT22;30894;51.740;19.498;2023-07-13T08:12:44;20.00;99.90
45137;DHT22;30894;51.740;19.498;2023-07-13T08:15:14;19.60;99.90
45137;DHT22;30894;51.740;19.498;2023-07-13T08:17:41;19.40;99.90
45137;DHT22;30894;51.740;19.498;2023-07-13T08:20:08;19.10;99.90
45137;DHT22;30894;51.740;19.498;2023-07-13T08:22:35;18.80;99.90
45137;DHT22;30894;51.740;19.498;2023-07-13T08:25:01;18.60;99.90
45137;DHT22;30894;51.740;19.498;2023-07-13T08:27:28;18.40;99.90
45137;DHT22;30894;51.740;19.498;2023-07-13T08:29:54;18.30;99.90
45137;DHT22;30894;51.740;19.498;2023-07-13T08:32:22;18.20;99.90
45137;DHT22;30894;51.740;19.498;2023-07-13T08:34:48;18.10;99.90
45137;DHT22;30894;51.740;19.498;2023-07-13T08:37:16;18.00;99.90
45137;DHT22;30894;51.740;19.498;2023-07-13T08:39:42;17.90;99.90
45137;DHT22;30894;51.740;19.498;2023-07-13T08:47:39;17.80;99.90
45137;DHT22;30894;51.740;19.498;2023-07-13T08:50:17;17.60;99.90
45137;DHT22;30894;51.740;19.498;2023-07-13T08:52:44;17.50;99.90
45137;DHT22;30894;51.740;19.498;2023-07-13T08:55:27;17.40;99.90
45137;DHT22;30894;51.740;19.498;2023-07-13T08:58:10;17.40;99.90
45137;DHT22;30894;51.740;19.498;2023-07-13T09:01:02;17.40;99.90
45137;DHT22;30894;51.740;19.498;2023-07-13T09:04:09;17.30;99.90
45137;DHT22;30894;51.740;19.498;2023-07-13T09:13:07;17.00;99.90
45137;DHT22;30894;51.740;19.498;2023-07-13T09:15:43;17.00;99.90
45137;DHT22;30894;51.740;19.498;2023-07-13T09:18:25;17.00;99.90
45137;DHT22;30894;51.740;19.498;2023-07-13T09:21:28;17.00;99.90
45137;DHT22;30894;51.740;19.498;2023-07-13T09:24:29;16.90;99.90
45137;DHT22;30894;51.740;19.498;2023-07-13T09:26:57;16.90;99.90
45137;DHT22;30894;51.740;19.498;2023-07-13T09:29:29;16.90;99.90
45137;DHT22;30894;51.740;19.498;2023-07-13T09:32:01;16.90;99.90
45137;DHT22;30894;51.740;19.498;2023-07-13T09:34:30;16.90;99.90
45137;DHT22;30894;51.740;19.498;2023-07-13T09:36:58;16.90;99.90
45137;DHT22;30894;51.740;19.498;2023-07-13T09:39:34;16.90;99.90
45137;DHT22;30894;51.740;19.498;2023-07-13T09:42:16;16.90;99.90
45137;DHT22;30894;51.740;19.498;2023-07-13T09:47:28;16.90;99.90
45137;DHT22;30894;51.740;19.498;2023-07-13T09:50:07;16.90;99.90
45137;DHT22;30894;51.740;19.498;2023-07-13T09:52:47;17.00;99.90
45137;DHT22;30894;51.740;19.498;2023-07-13T09:55:44;17.00;99.90
45137;DHT22;30894;51.740;19.498;2023-07-13T09:58:19;17.10;99.90
45137;DHT22;30894;51.740;19.498;2023-07-13T10:01:04;17.10;99.90
45137;DHT22;30894;51.740;19.498;2023-07-13T10:03:32;17.20;99.90
45137;DHT22;30894;51.740;19.498;2023-07-13T10:06:30;17.10;99.90
45137;DHT22;30894;51.740;19.498;2023-07-13T10:08:57;17.10;99.90
45137;DHT22;30894;51.740;19.498;2023-07-13T10:11:28;17.10;99.90
45137;DHT22;30894;51.740;19.498;2023-07-13T10:16:25;17.20;99.90
45137;DHT22;30894;51.740;19.498;2023-07-13T10:18:58;17.30;99.90
45137;DHT22;30894;51.740;19.498;2023-07-13T10:21:33;17.40;99.90
45137;DHT22;30894;51.740;19.498;2023-07-13T10:24:27;17.40;99.90
45137;DHT22;30894;51.740;19.498;2023-07-13T10:30:00;17.50;99.90
45137;DHT22;30894;51.740;19.498;2023-07-13T10:32:35;17.50;99.90
45137;DHT22;30894;51.740;19.498;2023-07-13T10:35:01;17.70;99.90
45137;DHT22;30894;51.740;19.498;2023-07-13T10:37:35;17.70;99.90
45137;DHT22;30894;51.740;19.498;2023-07-13T10:40:38;17.60;99.90
45137;DHT22;30894;51.740;19.498;2023-07-13T10:43:26;17.60;99.90
45137;DHT22;30894;51.740;19.498;2023-07-13T10:45:56;17.60;99.90
45137;DHT22;30894;51.740;19.498;2023-07-13T10:48:23;17.50;99.90
45137;DHT22;30894;51.740;19.498;2023-07-13T10:50:52;17.50;99.90
45137;DHT22;30894;51.740;19.498;2023-07-13T10:53:28;17.60;99.90
45137;DHT22;30894;51.740;19.498;2023-07-13T10:58:42;17.60;99.90
45137;DHT22;30894;51.740;19.498;2023-07-13T11:01:19;17.60;99.90
45137;DHT22;30894;51.740;19.498;2023-07-13T11:04:02;17.80;99.90
45137;DHT22;30894;51.740;19.498;2023-07-13T11:06:33;17.70;99.90
45137;DHT22;30894;51.740;19.498;2023-07-13T11:09:40;17.80;99.90
45137;DHT22;30894;51.740;19.498;2023-07-13T11:14:37;17.80;99.90
45137;DHT22;30894;51.740;19.498;2023-07-13T11:23:07;18.10;99.90
45137;DHT22;30894;51.740;19.498;2023-07-13T11:25:42;18.30;99.90
45137;DHT22;30894;51.740;19.498;2023-07-13T11:38:40;18.90;99.90
45137;DHT22;30894;51.740;19.498;2023-07-13T11:43:41;19.00;99.90
45137;DHT22;30894;51.740;19.498;2023-07-13T11:46:33;19.00;99.90
45137;DHT22;30894;51.740;19.498;2023-07-13T11:48:59;19.10;99.90
45137;DHT22;30894;51.740;19.498;2023-07-13T11:51:29;19.10;99.90
45137;DHT22;30894;51.740;19.498;2023-07-13T11:54:03;19.10;99.90
45137;DHT22;30894;51.740;19.498;2023-07-13T11:56:43;19.10;99.90
45137;DHT22;30894;51.740;19.498;2023-07-13T11:59:14;19.20;99.90
45137;DHT22;30894;51.740;19.498;2023-07-13T12:01:51;19.20;99.90
45137;DHT22;30894;51.740;19.498;2023-07-13T12:04:27;19.30;99.90
45137;DHT22;30894;51.740;19.498;2023-07-13T12:07:15;19.30;99.90
45137;DHT22;30894;51.740;19.498;2023-07-13T12:09:42;19.30;99.90
45137;DHT22;30894;51.740;19.498;2023-07-13T12:12:18;19.30;99.90
45137;DHT22;30894;51.740;19.498;2023-07-13T12:14:53;19.30;99.90
45137;DHT22;30894;51.740;19.498;2023-07-13T12:17:24;19.30;99.90
45137;DHT22;30894;51.740;19.498;2023-07-13T12:19:52;19.30;99.90
45137;DHT22;30894;51.740;19.498;2023-07-13T12:22:20;19.30;99.90
45137;DHT22;30894;51.740;19.498;2023-07-13T12:24:49;19.30;99.90
45137;DHT22;30894;51.740;19.498;2023-07-13T12:27:25;19.20;99.90
45137;DHT22;30894;51.740;19.498;2023-07-13T12:30:02;19.10;99.90
45137;DHT22;30894;51.740;19.498;2023-07-13T12:32:32;19.10;99.90
45137;DHT22;30894;51.740;19.498;2023-07-13T12:35:14;19.10;99.90
45137;DHT22;30894;51.740;19.498;2023-07-13T12:37:43;19.10;99.90
45137;DHT22;30894;51.740;19.498;2023-07-13T12:40:15;19.20;99.90
45137;DHT22;30894;51.740;19.498;2023-07-13T12:42:47;19.40;99.90
45137;DHT22;30894;51.740;19.498;2023-07-13T12:45:21;19.50;99.90
45137;DHT22;30894;51.740;19.498;2023-07-13T12:47:56;19.60;99.90
45137;DHT22;30894;51.740;19.498;2023-07-13T12:50:42;19.80;99.90
45137;DHT22;30894;51.740;19.498;2023-07-13T12:53:15;19.90;99.90
45137;DHT22;30894;51.740;19.498;2023-07-13T12:55:59;20.00;99.90
45137;DHT22;30894;51.740;19.498;2023-07-13T12:58:39;20.20;99.90
45137;DHT22;30894;51.740;19.498;2023-07-13T13:01:13;20.20;99.90
45137;DHT22;30894;51.740;19.498;2023-07-13T13:03:49;20.10;99.90
45137;DHT22;30894;51.740;19.498;2023-07-13T13:06:26;20.10;99.90
45137;DHT22;30894;51.740;19.498;2023-07-13T13:08:59;20.00;99.90
45137;DHT22;30894;51.740;19.498;2023-07-13T13:11:27;19.90;99.90
45137;DHT22;30894;51.740;19.498;2023-07-13T13:13:55;19.90;99.90
45137;DHT22;30894;51.740;19.498;2023-07-13T13:16:22;19.90;99.90
45137;DHT22;30894;51.740;19.498;2023-07-13T13:18:55;20.00;99.90
45137;DHT22;30894;51.740;19.498;2023-07-13T13:21:23;20.10;99.90
45137;DHT22;30894;51.740;19.498;2023-07-13T13:23:50;20.10;99.90
45137;DHT22;30894;51.740;19.498;2023-07-13T13:26:19;20.10;99.90
45137;DHT22;30894;51.740;19.498;2023-07-13T13:28:46;20.20;99.90
45137;DHT22;30894;51.740;19.498;2023-07-13T13:31:13;20.30;99.90
45137;DHT22;30894;51.740;19.498;2023-07-13T13:33:42;20.30;99.90
45137;DHT22;30894;51.740;19.498;2023-07-13T13:36:18;20.30;99.90
45137;DHT22;30894;51.740;19.498;2023-07-13T13:38:47;20.30;99.90
45137;DHT22;30894;51.740;19.498;2023-07-13T13:41:14;20.30;99.90
45137;DHT22;30894;51.740;19.498;2023-07-13T13:43:42;20.30;99.90
45137;DHT22;30894;51.740;19.498;2023-07-13T13:46:21;20.30;99.90
45137;DHT22;30894;51.740;19.498;2023-07-13T13:48:50;20.20;99.90
45137;DHT22;30894;51.740;19.498;2023-07-13T13:51:22;20.20;99.90
45137;DHT22;30894;51.740;19.498;2023-07-13T13:53:50;20.10;99.90
45137;DHT22;30894;51.740;19.498;2023-07-13T13:56:18;20.10;99.90
45137;DHT22;30894;51.740;19.498;2023-07-13T13:58:46;20.10;99.90
45137;DHT22;30894;51.740;19.498;2023-07-13T14:01:20;20.30;99.90
45137;DHT22;30894;51.740;19.498;2023-07-13T14:03:49;20.20;99.90
45137;DHT22;30894;51.740;19.498;2023-07-13T14:06:17;20.30;99.90
45137;DHT22;30894;51.740;19.498;2023-07-13T14:08:43;20.20;99.90
45137;DHT22;30894;51.740;19.498;2023-07-13T14:11:12;20.10;99.90
45137;DHT22;30894;51.740;19.498;2023-07-13T14:13:49;20.00;99.90
45137;DHT22;30894;51.740;19.498;2023-07-13T14:16:19;19.90;99.90
45137;DHT22;30894;51.740;19.498;2023-07-13T14:18:48;19.80;99.90
45137;DHT22;30894;51.740;19.498;2023-07-13T14:21:17;19.80;99.90
45137;DHT22;30894;51.740;19.498;2023-07-13T14:23:46;19.90;99.90
45137;DHT22;30894;51.740;19.498;2023-07-13T14:26:21;19.90;99.90
45137;DHT22;30894;51.740;19.498;2023-07-13T14:28:52;19.90;99.90
45137;DHT22;30894;51.740;19.498;2023-07-13T14:31:23;20.00;99.90
45137;DHT22;30894;51.740;19.498;2023-07-13T14:33:50;20.00;99.90
45137;DHT22;30894;51.740;19.498;2023-07-13T14:36:32;19.90;99.90
45137;DHT22;30894;51.740;19.498;2023-07-13T14:39:10;20.00;99.90
45137;DHT22;30894;51.740;19.498;2023-07-13T14:41:38;20.00;99.90
45137;DHT22;30894;51.740;19.498;2023-07-13T14:44:26;20.10;99.90
45137;DHT22;30894;51.740;19.498;2023-07-13T14:46:55;20.20;99.90
45137;DHT22;30894;51.740;19.498;2023-07-13T14:51:52;20.40;99.90
45137;DHT22;30894;51.740;19.498;2023-07-13T14:54:19;20.60;99.90
45137;DHT22;30894;51.740;19.498;2023-07-13T14:56:45;20.70;99.90
45137;DHT22;30894;51.740;19.498;2023-07-13T14:59:13;20.80;99.90
45137;DHT22;30894;51.740;19.498;2023-07-13T15:01:40;20.80;99.90
45137;DHT22;30894;51.740;19.498;2023-07-13T15:04:08;20.80;99.90
45137;DHT22;30894;51.740;19.498;2023-07-13T15:06:58;20.80;99.90
45137;DHT22;30894;51.740;19.498;2023-07-13T15:09:27;20.90;99.90
45137;DHT22;30894;51.740;19.498;2023-07-13T15:11:55;21.00;99.90
45137;DHT22;30894;51.740;19.498;2023-07-13T15:14:22;21.30;99.90
45137;DHT22;30894;51.740;19.498;2023-07-13T15:16:52;21.70;99.90
45137;DHT22;30894;51.740;19.498;2023-07-13T15:19:20;22.30;99.90
45137;DHT22;30894;51.740;19.498;2023-07-13T15:21:53;22.70;99.90
45137;DHT22;30894;51.740;19.498;2023-07-13T15:24:21;23.10;99.90
45137;DHT22;30894;51.740;19.498;2023-07-13T15:26:47;23.20;99.90
45137;DHT22;30894;51.740;19.498;2023-07-13T15:29:16;23.10;99.90
45137;DHT22;30894;51.740;19.498;2023-07-13T15:31:43;23.00;99.90
45137;DHT22;30894;51.740;19.498;2023-07-13T15:34:26;23.10;99.90
45137;DHT22;30894;51.740;19.498;2023-07-13T15:36:52;23.10;99.90
45137;DHT22;30894;51.740;19.498;2023-07-13T15:39:19;23.20;99.90
45137;DHT22;30894;51.740;19.498;2023-07-13T15:41:45;23.40;99.90
45137;DHT22;30894;51.740;19.498;2023-07-13T15:44:30;23.50;99.90
45137;DHT22;30894;51.740;19.498;2023-07-13T15:46:57;23.80;99.90
45137;DHT22;30894;51.740;19.498;2023-07-13T15:49:23;23.90;99.90
45137;DHT22;30894;51.740;19.498;2023-07-13T15:51:49;24.00;99.90
45137;DHT22;30894;51.740;19.498;2023-07-13T15:54:18;24.10;99.90
45137;DHT22;30894;51.740;19.498;2023-07-13T15:56:51;24.00;99.90
45137;DHT22;30894;51.740;19.498;2023-07-13T15:59:19;23.90;99.90
45137;DHT22;30894;51.740;19.498;2023-07-13T16:01:45;23.70;99.90
45137;DHT22;30894;51.740;19.498;2023-07-13T16:04:15;23.70;99.90
45137;DHT22;30894;51.740;19.498;2023-07-13T16:06:43;23.80;99.90
45137;DHT22;30894;51.740;19.498;2023-07-13T16:09:19;23.70;99.90
45137;DHT22;30894;51.740;19.498;2023-07-13T16:11:49;23.90;99.90
45137;DHT22;30894;51.740;19.498;2023-07-13T16:14:15;24.00;99.90
45137;DHT22;30894;51.740;19.498;2023-07-13T16:16:42;24.10;99.90
45137;DHT22;30894;51.740;19.498;2023-07-13T16:19:09;24.30;99.90
45137;DHT22;30894;51.740;19.498;2023-07-13T16:21:44;24.00;99.90